Terminal Aerodrome Forecast
Issued by NWS Twin Cities, MN

Home | Current Version | Previous Version | Text Only | Print | Product List | Glossary Off
Versions: 1 2 3 4 5 6 7 8 9 10 11 12 13 14 15 16 17 18 19

000
FTUS43 KMPX 192341
TAFSTC
TAF
KSTC 192341Z 2000/2024 32015G22KT P6SM OVC035
      TEMPO 2000/2003 BKN025 BKN060
     FM200600 32012KT P6SM FEW030 BKN070
     FM201000 31015G25KT P6SM OVC020
     FM201600 30022G32KT P6SM BKN035 OVC050=

USA.gov is the U.S. government's official web portal to all federal, state and local government web resources and services.